createdAt,value
2018-03-20T00:00:42.965Z,7.80
2018-03-20T00:03:10.177Z,7.32
2018-03-20T00:05:37.446Z,5.72
2018-03-20T00:08:04.568Z,7.05
2018-03-20T00:10:31.374Z,6.15
2018-03-20T00:12:59.178Z,6.00
2018-03-20T00:15:26.964Z,7.78
2018-03-20T00:17:54.338Z,6.12
2018-03-20T00:20:21.648Z,6.05
2018-03-20T00:22:50.583Z,6.20
2018-03-20T00:25:17.635Z,6.30
2018-03-20T00:27:44.961Z,5.72
2018-03-20T00:30:12.199Z,6.25
2018-03-20T00:32:39.161Z,6.55
2018-03-20T00:35:06.010Z,11.00
2018-03-20T00:37:33.277Z,9.02
2018-03-20T00:40:00.769Z,10.52
2018-03-20T00:42:27.885Z,7.80
2018-03-20T00:44:55.296Z,7.82
2018-03-20T00:47:22.495Z,7.30
2018-03-20T00:49:49.558Z,6.40
2018-03-20T00:52:16.300Z,6.37
2018-03-20T00:54:43.032Z,6.60
2018-03-20T00:57:10.680Z,7.35
2018-03-20T00:59:37.782Z,8.05
2018-03-20T01:02:06.318Z,8.38
2018-03-20T01:04:33.640Z,7.62
2018-03-20T01:07:00.868Z,7.82
2018-03-20T01:09:28.592Z,9.07
2018-03-20T01:11:56.049Z,11.75
2018-03-20T01:14:22.827Z,9.05
2018-03-20T01:16:49.898Z,7.53
2018-03-20T01:19:16.980Z,8.35
2018-03-20T01:21:43.786Z,7.78
2018-03-20T01:24:10.543Z,6.68
2018-03-20T01:26:37.697Z,6.53
2018-03-20T01:29:06.015Z,6.43
2018-03-20T01:31:33.062Z,7.40
2018-03-20T01:34:00.323Z,7.10
2018-03-20T01:36:27.961Z,6.30
2018-03-20T01:38:55.592Z,7.62
2018-03-20T01:41:22.956Z,6.62
2018-03-20T01:43:49.782Z,6.12
2018-03-20T01:46:16.880Z,5.60
2018-03-20T01:48:43.816Z,6.43
2018-03-20T01:51:10.939Z,5.78
2018-03-20T01:53:37.969Z,6.25
2018-03-20T01:56:05.428Z,6.03
2018-03-20T01:58:32.825Z,6.25
2018-03-20T02:01:00.287Z,5.82
2018-03-20T02:03:27.869Z,6.85
2018-03-20T02:05:55.139Z,5.82
2018-03-20T02:08:22.267Z,6.45
2018-03-20T02:10:49.508Z,6.22
2018-03-20T02:15:02.094Z,6.15
2018-03-20T02:17:29.327Z,5.47
2018-03-20T02:19:56.262Z,6.43
2018-03-20T02:22:23.914Z,5.60
2018-03-20T02:24:50.723Z,5.47
2018-03-20T02:27:17.476Z,5.95
2018-03-20T02:29:44.238Z,5.80
2018-03-20T02:32:11.375Z,5.53
2018-03-20T02:34:38.203Z,5.35
2018-03-20T02:37:05.792Z,5.65
2018-03-20T02:39:33.339Z,5.32
2018-03-20T02:44:41.336Z,5.80
2018-03-20T02:47:08.462Z,6.15
2018-03-20T02:49:36.424Z,6.32
2018-03-20T02:52:03.519Z,6.18
2018-03-20T02:54:31.024Z,6.25
2018-03-20T02:56:57.980Z,6.22
2018-03-20T02:59:24.855Z,6.50
2018-03-20T03:01:52.183Z,6.10
2018-03-20T03:04:19.316Z,7.95
2018-03-20T03:06:46.337Z,10.25
2018-03-20T03:09:13.064Z,10.68
2018-03-20T03:11:40.698Z,9.38
2018-03-20T03:14:07.785Z,11.90
2018-03-20T03:16:34.840Z,10.13
2018-03-20T03:19:01.545Z,12.30
2018-03-20T03:21:28.432Z,12.25
2018-03-20T03:23:55.623Z,9.73
2018-03-20T03:26:22.404Z,8.77
2018-03-20T03:28:49.790Z,7.15
2018-03-20T03:31:16.508Z,6.87
2018-03-20T03:33:43.679Z,7.70
2018-03-20T03:36:10.691Z,6.65
2018-03-20T03:38:37.747Z,6.82
2018-03-20T03:41:05.256Z,6.40
2018-03-20T03:43:33.557Z,6.90
2018-03-20T03:46:00.440Z,6.75
2018-03-20T03:48:27.216Z,6.43
2018-03-20T03:50:54.384Z,6.12
2018-03-20T03:53:21.368Z,6.40
2018-03-20T03:55:48.385Z,5.82
2018-03-20T03:58:15.167Z,6.95
2018-03-20T04:00:42.143Z,6.78
2018-03-20T04:03:09.196Z,6.60
2018-03-20T04:05:37.020Z,8.35
2018-03-20T04:08:05.139Z,7.28
2018-03-20T04:13:06.200Z,7.72
2018-03-20T04:15:33.569Z,7.90
2018-03-20T04:18:00.699Z,8.32
2018-03-20T04:20:28.455Z,8.35
2018-03-20T04:22:55.426Z,8.77
2018-03-20T04:25:23.240Z,8.75
2018-03-20T04:27:50.303Z,8.35
2018-03-20T04:30:17.357Z,12.43
2018-03-20T04:32:44.442Z,11.10
2018-03-20T04:35:12.488Z,10.20
2018-03-20T04:37:39.460Z,14.00
2018-03-20T04:40:07.293Z,10.43
2018-03-20T04:42:34.468Z,10.50
2018-03-20T04:45:01.780Z,12.52
2018-03-20T04:50:02.390Z,11.50
2018-03-20T04:52:29.370Z,13.48
2018-03-20T04:54:56.174Z,14.52
2018-03-20T04:57:25.697Z,9.93
2018-03-20T04:59:52.778Z,10.98
2018-03-20T05:02:20.339Z,12.10
2018-03-20T05:04:47.525Z,10.38
2018-03-20T05:07:14.617Z,11.50
2018-03-20T05:09:41.850Z,8.80
2018-03-20T05:12:09.032Z,10.35
2018-03-20T05:14:37.033Z,7.93
2018-03-20T05:17:04.455Z,7.87
2018-03-20T05:19:41.831Z,7.62
2018-03-20T05:22:15.234Z,9.80
2018-03-20T05:24:42.681Z,8.27
2018-03-20T05:27:09.892Z,8.80
2018-03-20T05:29:37.041Z,6.47
2018-03-20T05:32:04.449Z,6.82
2018-03-20T05:34:31.087Z,6.10
2018-03-20T05:36:58.097Z,6.35
2018-03-20T05:39:25.427Z,8.15
2018-03-20T05:41:52.385Z,6.30
2018-03-20T05:44:19.804Z,6.12
2018-03-20T05:49:54.386Z,6.60
2018-03-20T05:52:22.025Z,6.68
2018-03-20T05:54:49.053Z,7.40
2018-03-20T05:57:16.511Z,6.47
2018-03-20T05:59:43.736Z,5.82
2018-03-20T06:02:11.116Z,5.60
2018-03-20T06:04:37.964Z,5.18
2018-03-20T06:07:06.456Z,5.68
2018-03-20T06:09:33.360Z,5.65
2018-03-20T06:12:00.530Z,6.75
2018-03-20T06:14:30.122Z,9.20
2018-03-20T06:16:58.427Z,6.70
2018-03-20T06:19:25.314Z,6.62
2018-03-20T06:21:52.573Z,6.37
2018-03-20T06:24:19.531Z,7.37
2018-03-20T06:26:46.610Z,7.18
2018-03-20T06:29:14.095Z,7.50
2018-03-20T06:31:44.230Z,7.68
2018-03-20T06:34:10.991Z,7.90
2018-03-20T06:36:39.194Z,7.85
2018-03-20T06:39:07.340Z,8.40
2018-03-20T06:41:34.372Z,7.93
2018-03-20T06:46:35.240Z,7.85
2018-03-20T06:49:02.195Z,7.50
2018-03-20T06:51:29.323Z,7.82
2018-03-20T06:53:56.254Z,6.05
2018-03-20T06:56:23.620Z,6.70
2018-03-20T06:58:50.708Z,6.50
2018-03-20T07:01:17.739Z,6.22
2018-03-20T07:03:46.314Z,7.12
2018-03-20T07:06:14.973Z,7.03
2018-03-20T07:08:42.641Z,7.37
2018-03-20T07:11:09.971Z,6.22
2018-03-20T07:13:37.358Z,7.07
2018-03-20T07:16:05.938Z,7.00
2018-03-20T07:18:33.305Z,7.10
2018-03-20T07:21:00.867Z,7.12
2018-03-20T07:23:27.727Z,7.70
2018-03-20T07:25:54.392Z,8.20
2018-03-20T07:28:22.224Z,7.78
2018-03-20T07:30:50.344Z,8.05
2018-03-20T07:33:17.236Z,9.93
2018-03-20T07:35:44.911Z,8.88
2018-03-20T07:38:12.192Z,10.27
2018-03-20T07:40:39.892Z,7.97
2018-03-20T07:43:07.054Z,11.15
2018-03-20T07:45:34.297Z,9.23
2018-03-20T07:48:01.230Z,12.55
2018-03-20T07:50:28.518Z,13.80
2018-03-20T07:52:55.356Z,12.55
2018-03-20T07:55:22.523Z,13.75
2018-03-20T07:57:49.422Z,11.32
2018-03-20T08:00:16.940Z,12.63
2018-03-20T08:02:43.808Z,12.13
2018-03-20T08:05:10.636Z,12.95
2018-03-20T08:07:37.448Z,13.05
2018-03-20T08:10:04.515Z,12.70
2018-03-20T08:12:31.327Z,13.85
2018-03-20T08:14:58.478Z,12.37
2018-03-20T08:17:26.135Z,12.75
2018-03-20T08:19:52.923Z,13.93
2018-03-20T08:22:19.859Z,13.95
2018-03-20T08:24:46.463Z,14.73
2018-03-20T08:27:13.706Z,14.10
2018-03-20T08:29:40.710Z,12.95
2018-03-20T08:32:08.254Z,13.30
2018-03-20T08:34:35.148Z,10.25
2018-03-20T08:37:03.473Z,11.12
2018-03-20T08:39:30.774Z,11.40
2018-03-20T08:41:58.256Z,12.70
2018-03-20T08:44:25.459Z,12.02
2018-03-20T08:46:52.372Z,11.23
2018-03-20T08:49:19.624Z,12.48
2018-03-20T08:51:46.503Z,11.40
2018-03-20T08:54:13.507Z,10.05
2018-03-20T08:56:40.456Z,10.40
2018-03-20T08:59:07.541Z,10.85
2018-03-20T09:01:34.538Z,12.98
2018-03-20T09:04:01.558Z,10.95
2018-03-20T09:06:29.012Z,11.63
2018-03-20T09:08:55.756Z,10.63
2018-03-20T09:11:22.782Z,10.05
2018-03-20T09:13:49.864Z,11.07
2018-03-20T09:16:16.915Z,8.00
2018-03-20T09:18:43.824Z,10.07
2018-03-20T09:21:10.566Z,8.60
2018-03-20T09:23:37.843Z,8.40
2018-03-20T09:26:04.454Z,11.98
2018-03-20T09:28:31.271Z,7.15
2018-03-20T09:30:57.972Z,7.28
2018-03-20T09:33:25.121Z,6.70
2018-03-20T09:35:52.154Z,7.55
2018-03-20T09:38:22.054Z,6.80
2018-03-20T09:40:49.141Z,6.93
2018-03-20T09:43:15.911Z,7.07
2018-03-20T09:45:42.818Z,6.35
2018-03-20T09:48:09.692Z,6.50
2018-03-20T09:50:36.768Z,7.30
2018-03-20T09:53:03.841Z,6.80
2018-03-20T09:55:30.918Z,7.10
2018-03-20T09:57:58.374Z,6.05
2018-03-20T10:00:25.329Z,7.07
2018-03-20T10:02:53.034Z,5.40
2018-03-20T10:05:20.940Z,7.55
2018-03-20T10:07:48.094Z,5.15
2018-03-20T10:10:14.937Z,5.93
2018-03-20T10:12:42.228Z,8.48
2018-03-20T10:15:09.083Z,6.47
2018-03-20T10:17:36.269Z,6.00
2018-03-20T10:20:03.249Z,7.87
2018-03-20T10:22:30.959Z,6.43
2018-03-20T10:24:58.044Z,5.37
2018-03-20T10:27:25.647Z,6.72
2018-03-20T10:29:53.251Z,7.40
2018-03-20T10:32:21.588Z,7.18
2018-03-20T10:34:49.075Z,6.50
2018-03-20T10:37:16.250Z,6.53
2018-03-20T10:39:43.887Z,7.30
2018-03-20T10:42:11.376Z,5.65
2018-03-20T10:44:38.354Z,7.20
2018-03-20T10:47:06.375Z,7.20
2018-03-20T10:49:33.994Z,7.20
2018-03-20T10:52:01.756Z,6.62
2018-03-20T10:54:29.204Z,6.50
2018-03-20T10:56:56.599Z,5.90
2018-03-20T10:59:23.849Z,6.82
2018-03-20T11:01:50.898Z,6.57
2018-03-20T11:04:18.246Z,6.07
2018-03-20T11:06:45.073Z,6.18
2018-03-20T11:09:12.255Z,7.03
2018-03-20T11:11:39.470Z,6.70
2018-03-20T11:14:07.704Z,8.75
2018-03-20T11:16:35.039Z,7.00
2018-03-20T11:19:03.268Z,6.60
2018-03-20T11:21:30.978Z,11.68
2018-03-20T11:23:58.109Z,7.75
2018-03-20T11:26:25.122Z,9.98
2018-03-20T11:28:58.977Z,8.30
2018-03-20T11:31:26.288Z,6.97
2018-03-20T11:33:53.762Z,7.70
2018-03-20T11:36:21.186Z,7.62
2018-03-20T11:38:49.083Z,8.73
2018-03-20T11:41:16.531Z,8.30
2018-03-20T11:43:43.492Z,7.03
2018-03-20T11:46:10.655Z,7.15
2018-03-20T11:48:37.823Z,5.22
2018-03-20T11:51:05.078Z,6.78
2018-03-20T11:53:31.943Z,6.05
2018-03-20T11:55:58.595Z,6.93
2018-03-20T11:58:26.183Z,7.25
2018-03-20T12:00:53.650Z,7.55
2018-03-20T12:03:21.311Z,7.07
2018-03-20T12:05:48.358Z,8.73
2018-03-20T12:08:27.456Z,7.80
2018-03-20T12:10:55.203Z,11.15
2018-03-20T12:13:22.327Z,11.85
2018-03-20T12:15:49.331Z,9.02
2018-03-20T12:18:17.026Z,9.23
2018-03-20T12:20:44.506Z,10.52
2018-03-20T12:23:12.424Z,8.77
2018-03-20T12:25:39.966Z,9.10
2018-03-20T12:28:06.810Z,9.43
2018-03-20T12:30:35.004Z,11.40
2018-03-20T12:33:01.822Z,9.18
2018-03-20T12:35:31.673Z,7.07
2018-03-20T12:37:59.252Z,7.95
2018-03-20T12:40:25.906Z,7.05
2018-03-20T12:42:53.145Z,6.95
2018-03-20T12:45:20.472Z,7.93
2018-03-20T12:47:47.520Z,9.00
2018-03-20T12:50:14.652Z,12.18
2018-03-20T12:52:41.729Z,8.52
2018-03-20T12:55:09.139Z,10.63
2018-03-20T12:57:36.490Z,6.87
2018-03-20T13:00:03.272Z,8.20
2018-03-20T13:02:30.202Z,8.20
2018-03-20T13:04:57.627Z,5.85
2018-03-20T13:07:24.782Z,8.98
2018-03-20T13:09:51.859Z,12.23
2018-03-20T13:12:19.081Z,8.32
2018-03-20T13:14:45.867Z,8.57
2018-03-20T13:17:13.249Z,7.82
2018-03-20T13:19:41.208Z,10.32
2018-03-20T13:22:12.047Z,9.98
2018-03-20T13:24:39.225Z,8.40
2018-03-20T13:27:06.472Z,10.60
2018-03-20T13:29:35.154Z,9.35
2018-03-20T13:32:02.670Z,10.60
2018-03-20T13:34:29.439Z,8.40
2018-03-20T13:36:56.445Z,8.15
2018-03-20T13:39:23.565Z,8.15
2018-03-20T13:41:50.178Z,8.25
2018-03-20T13:44:17.221Z,7.43
2018-03-20T13:46:44.224Z,9.02
2018-03-20T13:49:11.122Z,7.62
2018-03-20T13:51:38.021Z,10.30
2018-03-20T13:54:04.985Z,9.50
2018-03-20T13:56:31.886Z,7.62
2018-03-20T13:58:59.377Z,12.30
2018-03-20T14:01:26.086Z,9.63
2018-03-20T14:03:52.529Z,10.80
2018-03-20T14:06:19.603Z,8.75
2018-03-20T14:08:46.660Z,8.85
2018-03-20T14:11:14.042Z,12.48
2018-03-20T14:13:42.315Z,8.55
2018-03-20T14:16:16.118Z,8.45
2018-03-20T14:18:42.946Z,7.25
2018-03-20T14:21:10.280Z,8.00
2018-03-20T14:23:37.319Z,6.40
2018-03-20T14:26:04.065Z,7.22
2018-03-20T14:28:31.253Z,20.75
2018-03-20T14:30:58.044Z,29.58
2018-03-20T14:33:25.347Z,32.25
2018-03-20T14:35:52.898Z,37.13
2018-03-20T14:38:20.011Z,38.28
2018-03-20T14:40:47.331Z,36.65
2018-03-20T14:43:13.995Z,24.52
2018-03-20T14:45:40.712Z,26.23
2018-03-20T14:48:07.850Z,32.33
2018-03-20T14:50:35.127Z,38.10
2018-03-20T14:53:01.738Z,40.78
2018-03-20T14:55:28.671Z,42.85
2018-03-20T14:57:56.520Z,49.50
2018-03-20T15:00:23.177Z,44.03
2018-03-20T15:02:50.146Z,50.22
2018-03-20T15:05:17.013Z,43.42
2018-03-20T15:07:43.805Z,39.28
2018-03-20T15:10:10.562Z,41.28
2018-03-20T15:12:37.253Z,41.70
2018-03-20T15:15:04.303Z,42.08
2018-03-20T15:17:31.451Z,45.15
2018-03-20T15:19:58.618Z,40.58
2018-03-20T15:22:25.667Z,43.55
2018-03-20T15:24:53.116Z,43.75
2018-03-20T15:27:19.920Z,45.03
2018-03-20T15:29:46.511Z,45.33
2018-03-20T15:32:13.298Z,47.20
2018-03-20T15:34:41.337Z,45.10
2018-03-20T15:37:08.305Z,62.22
2018-03-20T15:39:35.342Z,69.20
2018-03-20T15:42:02.450Z,77.25
2018-03-20T15:44:29.438Z,81.07
2018-03-20T15:46:56.522Z,86.87
2018-03-20T15:49:24.073Z,90.15
2018-03-20T15:51:51.006Z,81.50
2018-03-20T15:54:17.832Z,79.97
2018-03-20T15:56:44.686Z,84.22
2018-03-20T15:59:11.436Z,89.40
2018-03-20T16:01:38.127Z,79.00
2018-03-20T16:04:05.825Z,71.68
2018-03-20T16:06:32.679Z,81.65
2018-03-20T16:08:59.948Z,75.15
2018-03-20T16:11:26.742Z,70.82
2018-03-20T16:13:54.142Z,65.40
2018-03-20T16:16:21.040Z,58.83
2018-03-20T16:18:47.738Z,37.25
2018-03-20T16:21:14.386Z,26.75
2018-03-20T16:23:40.988Z,17.15
2018-03-20T16:26:08.519Z,21.37
2018-03-20T16:28:35.143Z,18.80
2018-03-20T16:31:02.428Z,21.85
2018-03-20T16:33:28.828Z,27.37
2018-03-20T16:35:55.542Z,26.10
2018-03-20T16:38:22.434Z,24.25
2018-03-20T16:40:49.174Z,25.83
2018-03-20T16:43:16.143Z,23.02
2018-03-20T16:45:43.395Z,20.48
2018-03-20T16:48:10.092Z,25.67
2018-03-20T16:50:36.998Z,30.55
2018-03-20T16:53:03.703Z,25.58
2018-03-20T16:55:31.052Z,27.62
2018-03-20T16:57:58.004Z,26.23
2018-03-20T17:00:24.832Z,29.25
2018-03-20T17:02:51.899Z,31.87
2018-03-20T17:05:19.223Z,28.80
2018-03-20T17:07:46.563Z,24.98
2018-03-20T17:10:13.024Z,30.73
2018-03-20T17:12:40.110Z,38.38
2018-03-20T17:15:07.725Z,30.73
2018-03-20T17:17:35.396Z,28.98
2018-03-20T17:20:03.239Z,25.50
2018-03-20T17:22:30.409Z,27.17
2018-03-20T17:24:57.418Z,27.52
2018-03-20T17:27:24.326Z,30.23
2018-03-20T17:29:51.268Z,30.70
2018-03-20T17:32:18.150Z,30.75
2018-03-20T17:34:44.690Z,32.33
2018-03-20T17:37:11.460Z,28.33
2018-03-20T17:39:38.052Z,34.53
2018-03-20T17:42:05.738Z,31.60
2018-03-20T17:44:33.626Z,28.35
2018-03-20T17:47:00.328Z,33.35
2018-03-20T17:49:27.372Z,33.50
2018-03-20T17:51:54.252Z,34.40
2018-03-20T17:54:20.830Z,30.00
2018-03-20T17:56:48.375Z,35.00
2018-03-20T17:59:15.506Z,34.22
2018-03-20T18:01:42.443Z,32.45
2018-03-20T18:04:09.630Z,28.98
2018-03-20T18:06:36.214Z,32.92
2018-03-20T18:09:04.817Z,33.75
2018-03-20T18:11:31.780Z,38.42
2018-03-20T18:13:58.426Z,39.15
2018-03-20T18:16:25.528Z,42.28
2018-03-20T18:18:52.585Z,43.72
2018-03-20T18:21:20.643Z,48.22
2018-03-20T18:23:48.927Z,45.33
2018-03-20T18:26:17.907Z,48.08
2018-03-20T18:28:44.379Z,51.50
2018-03-20T18:31:11.079Z,49.55
2018-03-20T18:33:37.948Z,54.70
2018-03-20T18:36:05.872Z,52.60
2018-03-20T18:38:32.869Z,76.82
2018-03-20T18:41:00.690Z,74.47
2018-03-20T18:43:27.270Z,76.78
2018-03-20T18:45:54.120Z,85.28
2018-03-20T18:48:20.638Z,93.28
2018-03-20T18:50:48.164Z,113.57
2018-03-20T18:53:15.448Z,113.47
2018-03-20T18:55:43.656Z,128.23
2018-03-20T18:58:10.372Z,148.40
2018-03-20T19:00:37.006Z,130.00
2018-03-20T19:03:03.996Z,117.97
2018-03-20T19:05:30.778Z,99.70
2018-03-20T19:07:57.957Z,70.35
2018-03-20T19:10:25.298Z,79.85
2018-03-20T19:12:52.194Z,89.95
2018-03-20T19:15:19.086Z,89.25
2018-03-20T19:17:45.617Z,92.12
2018-03-20T19:20:12.303Z,100.57
2018-03-20T19:22:39.664Z,111.22
2018-03-20T19:25:06.445Z,118.25
2018-03-20T19:27:34.865Z,123.90
2018-03-20T19:30:01.704Z,137.25
2018-03-20T19:32:28.754Z,145.40
2018-03-20T19:34:56.041Z,140.95
2018-03-20T19:37:23.108Z,107.18
2018-03-20T19:39:50.110Z,162.95
2018-03-20T19:42:16.924Z,160.65
2018-03-20T19:44:43.511Z,70.95
2018-03-20T19:47:11.019Z,68.62
2018-03-20T19:49:37.754Z,204.35
2018-03-20T19:52:04.643Z,173.35
2018-03-20T19:54:31.940Z,149.38
2018-03-20T19:56:58.784Z,124.93
2018-03-20T19:59:25.614Z,123.93
2018-03-20T20:01:52.511Z,136.90
2018-03-20T20:04:19.284Z,123.95
2018-03-20T20:06:46.430Z,126.30
2018-03-20T20:09:13.256Z,139.73
2018-03-20T20:11:40.146Z,172.52
2018-03-20T20:14:07.367Z,159.82
2018-03-20T20:16:34.411Z,153.10
2018-03-20T20:19:02.386Z,154.35
2018-03-20T20:21:29.570Z,159.15
2018-03-20T20:23:56.733Z,169.15
2018-03-20T20:26:23.615Z,169.35
2018-03-20T20:28:50.871Z,177.07
2018-03-20T20:31:17.775Z,165.98
2018-03-20T20:33:45.342Z,159.30
2018-03-20T20:36:11.977Z,171.73
2018-03-20T20:38:38.887Z,182.50
2018-03-20T20:41:06.011Z,191.32
2018-03-20T20:43:32.910Z,182.10
2018-03-20T20:45:59.956Z,169.93
2018-03-20T20:48:26.914Z,180.30
2018-03-20T20:50:53.727Z,140.75
2018-03-20T20:53:20.602Z,108.68
2018-03-20T20:55:47.298Z,87.18
2018-03-20T20:58:14.197Z,82.62
2018-03-20T21:03:14.343Z,137.85
2018-03-20T21:05:41.246Z,119.85
2018-03-20T21:08:08.322Z,122.50
2018-03-20T21:10:35.128Z,119.65
2018-03-20T21:13:02.014Z,102.47
2018-03-20T21:15:28.741Z,108.22
2018-03-20T21:17:55.530Z,110.32
2018-03-20T21:20:22.270Z,112.00
2018-03-20T21:22:49.078Z,112.60
2018-03-20T21:25:16.189Z,114.45
2018-03-20T21:27:43.314Z,104.00
2018-03-20T21:30:10.196Z,100.93
2018-03-20T21:32:37.304Z,97.32
2018-03-20T21:35:04.307Z,100.95
2018-03-20T21:37:31.522Z,100.93
2018-03-20T21:39:58.603Z,100.07
2018-03-20T21:42:25.591Z,99.00
2018-03-20T21:44:52.255Z,99.13
2018-03-20T21:47:19.248Z,97.15
2018-03-20T21:49:46.237Z,98.05
2018-03-20T21:52:12.961Z,101.15
2018-03-20T21:54:39.954Z,96.75
2018-03-20T21:57:07.041Z,97.28
2018-03-20T21:59:33.705Z,100.18
2018-03-20T22:02:00.422Z,112.82
2018-03-20T22:04:27.155Z,118.55
2018-03-20T22:06:55.119Z,106.12
2018-03-20T22:09:21.723Z,96.43
2018-03-20T22:11:48.437Z,88.93
2018-03-20T22:14:15.103Z,84.57
2018-03-20T22:16:42.126Z,81.95
2018-03-20T22:19:08.886Z,84.78
2018-03-20T22:21:36.190Z,83.53
2018-03-20T22:24:02.813Z,73.40
2018-03-20T22:26:29.535Z,76.37
2018-03-20T22:28:56.237Z,73.53
2018-03-20T22:31:23.429Z,69.85
2018-03-20T22:33:50.337Z,59.55
2018-03-20T22:36:17.514Z,63.85
2018-03-20T22:38:44.537Z,55.72
2018-03-20T22:41:11.448Z,58.53
2018-03-20T22:43:38.140Z,55.72
2018-03-20T22:46:05.263Z,51.67
2018-03-20T22:48:32.290Z,56.37
2018-03-20T22:50:58.994Z,51.50
2018-03-20T22:53:25.686Z,55.72
2018-03-20T22:55:53.303Z,56.83
2018-03-20T22:58:20.010Z,54.38
2018-03-20T23:00:46.941Z,57.50
2018-03-20T23:03:13.569Z,56.60
2018-03-20T23:05:40.021Z,61.08
2018-03-20T23:08:07.536Z,63.58
2018-03-20T23:10:34.328Z,63.40
2018-03-20T23:13:01.141Z,59.95
2018-03-20T23:15:27.859Z,58.70
2018-03-20T23:17:54.679Z,54.58
2018-03-20T23:20:21.028Z,53.58
2018-03-20T23:22:47.819Z,52.97
2018-03-20T23:25:15.002Z,46.13
2018-03-20T23:27:42.150Z,42.60
2018-03-20T23:30:08.935Z,46.05
2018-03-20T23:32:35.534Z,42.90
2018-03-20T23:35:02.445Z,43.35
2018-03-20T23:37:29.127Z,50.90
2018-03-20T23:39:55.793Z,45.30
2018-03-20T23:42:22.423Z,55.00
2018-03-20T23:44:49.158Z,50.70
2018-03-20T23:47:17.491Z,50.28
2018-03-20T23:49:44.062Z,52.03
2018-03-20T23:52:10.674Z,39.53
2018-03-20T23:54:37.656Z,40.80
2018-03-20T23:57:04.949Z,41.72
2018-03-20T23:59:31.764Z,28.65
